Time;durP1;ratioP1;P1;durP2;ratioP2;P2;SDS_P1;SDS_P2;PMS_P1;PMS_P2;Temp;Humidity;BMP_temperature;BMP_pressure;BME280_temperature;BME280_humidity;BME280_pressure;Samples;Min_cycle;Max_cycle;Signal;HPM_P1;HPM_P2
2022/06/28 00:00:46;;;;;;;9.43;8.73;;;;;;;;;;4997537;28;20441;-93
2022/06/28 00:03:12;;;;;;;10.63;9.60;;;;;;;;;;5007277;28;20491;-94
2022/06/28 00:05:38;;;;;;;10.23;9.67;;;;;;;;;;5004450;28;20460;-95
2022/06/28 00:08:04;;;;;;;9.40;8.70;;;;;;;;;;5001671;28;20389;-94
2022/06/28 00:10:30;;;;;;;12.57;11.67;;;;;;;;;;4993286;28;20522;-95
2022/06/28 00:12:57;;;;;;;10.57;9.97;;;;;;;;;;4980170;28;20556;-95
2022/06/28 00:18:07;;;;;;;9.57;9.07;;;;;;;;;;4963013;29;20413;-94
2022/06/28 00:20:34;;;;;;;20.80;18.90;;;;;;;;;;4994680;28;20583;-94
2022/06/28 00:23:00;;;;;;;23.87;21.57;;;;;;;;;;4984167;28;20425;-95
2022/06/28 00:25:26;;;;;;;13.13;12.13;;;;;;;;;;4995800;28;20459;-95
2022/06/28 00:27:52;;;;;;;12.37;11.57;;;;;;;;;;4999314;28;20405;-95
2022/06/28 00:30:18;;;;;;;12.17;11.27;;;;;;;;;;4974486;28;20948;-95
2022/06/28 00:32:44;;;;;;;15.90;14.60;;;;;;;;;;4981905;28;20477;-92
2022/06/28 00:35:10;;;;;;;17.73;15.03;;;;;;;;;;4995982;28;20961;-95
2022/06/28 00:37:36;;;;;;;15.00;13.80;;;;;;;;;;4998929;28;20408;-95
2022/06/28 00:40:02;;;;;;;14.53;13.33;;;;;;;;;;4999682;28;20455;-95
2022/06/28 00:42:28;;;;;;;14.37;13.20;;;;;;;;;;4997246;28;20408;-94
2022/06/28 00:44:57;;;;;;;12.00;11.20;;;;;;;;;;4981385;28;20496;-95
2022/06/28 00:47:23;;;;;;;14.10;11.53;;;;;;;;;;4999066;28;20435;-95
2022/06/28 00:49:49;;;;;;;12.67;11.43;;;;;;;;;;5000570;28;20432;-94
2022/06/28 00:52:16;;;;;;;12.40;11.57;;;;;;;;;;4979191;28;20511;-95
2022/06/28 00:54:42;;;;;;;13.30;12.30;;;;;;;;;;5000913;28;20429;-93
2022/06/28 00:57:08;;;;;;;13.03;12.03;;;;;;;;;;4963589;28;20462;-94
2022/06/28 00:59:34;;;;;;;16.50;15.00;;;;;;;;;;4986637;28;20786;-93
2022/06/28 01:02:01;;;;;;;9.97;9.37;;;;;;;;;;4978064;28;20449;-94
2022/06/28 01:04:27;;;;;;;10.83;10.07;;;;;;;;;;4994659;28;20494;-94
2022/06/28 01:06:53;;;;;;;14.00;12.60;;;;;;;;;;4982683;28;20590;-92
2022/06/28 01:09:22;;;;;;;21.00;19.07;;;;;;;;;;5001284;28;20756;-94
2022/06/28 01:11:48;;;;;;;22.50;20.40;;;;;;;;;;4987251;28;20446;-93
2022/06/28 01:14:15;;;;;;;24.60;22.27;;;;;;;;;;4997776;28;20436;-94
2022/06/28 01:16:41;;;;;;;20.73;19.00;;;;;;;;;;4977896;28;20430;-94
2022/06/28 01:19:08;;;;;;;19.63;17.60;;;;;;;;;;4996173;28;20457;-94
2022/06/28 01:21:35;;;;;;;15.63;14.33;;;;;;;;;;4976316;28;20456;-94
2022/06/28 01:24:02;;;;;;;16.33;14.90;;;;;;;;;;4999108;28;20437;-94
2022/06/28 01:26:29;;;;;;;13.43;12.33;;;;;;;;;;5006756;28;20416;-95
2022/06/28 01:28:55;;;;;;;14.80;13.53;;;;;;;;;;4992388;28;20429;-95
2022/06/28 01:31:22;;;;;;;14.33;12.80;;;;;;;;;;4995420;28;20439;-95
2022/06/28 01:33:49;;;;;;;13.97;12.67;;;;;;;;;;5006310;28;20483;-94
2022/06/28 01:36:15;;;;;;;13.17;11.90;;;;;;;;;;5004223;28;20448;-94
2022/06/28 01:38:41;;;;;;;11.90;11.07;;;;;;;;;;4985434;28;20500;-94
2022/06/28 01:43:53;;;;;;;11.60;10.80;;;;;;;;;;4973066;29;20415;-95
2022/06/28 01:46:19;;;;;;;11.77;10.83;;;;;;;;;;5006348;28;20483;-94
2022/06/28 01:48:45;;;;;;;11.13;10.03;;;;;;;;;;5010687;28;20444;-94
2022/06/28 01:51:12;;;;;;;12.27;11.33;;;;;;;;;;5014375;28;20428;-93
2022/06/28 01:53:38;;;;;;;11.80;10.90;;;;;;;;;;4993758;28;20556;-89
2022/06/28 01:56:04;;;;;;;13.30;11.87;;;;;;;;;;4999754;28;20446;-95
2022/06/28 01:58:30;;;;;;;15.90;12.43;;;;;;;;;;4980274;28;20426;-94
2022/06/28 02:00:56;;;;;;;19.20;12.73;;;;;;;;;;5002862;28;20445;-94
2022/06/28 02:03:22;;;;;;;13.10;12.03;;;;;;;;;;4992643;28;20497;-94
2022/06/28 02:05:48;;;;;;;13.70;12.30;;;;;;;;;;5011345;28;20467;-93
2022/06/28 02:08:14;;;;;;;14.77;13.33;;;;;;;;;;5014435;28;20388;-94
2022/06/28 02:10:40;;;;;;;19.37;13.50;;;;;;;;;;5012457;28;20935;-94
2022/06/28 02:13:06;;;;;;;17.13;13.43;;;;;;;;;;5014562;28;20487;-94
2022/06/28 02:15:32;;;;;;;25.47;13.70;;;;;;;;;;5011944;28;20433;-94
2022/06/28 02:17:59;;;;;;;28.63;14.43;;;;;;;;;;5015612;28;20474;-94
2022/06/28 02:20:25;;;;;;;35.43;14.00;;;;;;;;;;4994022;28;20434;-92
2022/06/28 02:22:51;;;;;;;16.53;12.60;;;;;;;;;;5013971;28;20789;-88
2022/06/28 02:25:17;;;;;;;23.37;14.07;;;;;;;;;;5010515;28;20472;-94
2022/06/28 02:27:43;;;;;;;43.37;13.57;;;;;;;;;;5014255;28;20417;-94
2022/06/28 02:30:10;;;;;;;14.80;13.40;;;;;;;;;;5004496;28;20504;-94
2022/06/28 02:32:36;;;;;;;14.70;13.17;;;;;;;;;;4991371;28;20469;-95
2022/06/28 02:40:32;;;;;;;21.47;13.63;;;;;;;;;;4987446;28;20494;-94
2022/06/28 02:43:00;;;;;;;14.20;12.87;;;;;;;;;;5006822;28;20413;-95
2022/06/28 02:45:27;;;;;;;14.27;13.00;;;;;;;;;;4996806;28;20468;-94
2022/06/28 02:47:54;;;;;;;21.97;13.03;;;;;;;;;;4973967;28;20500;-94
2022/06/28 02:50:20;;;;;;;15.40;13.57;;;;;;;;;;5002735;28;20453;-94
2022/06/28 02:52:46;;;;;;;23.87;14.50;;;;;;;;;;4954278;28;20485;-92
2022/06/28 02:55:12;;;;;;;16.33;14.10;;;;;;;;;;4977639;28;20433;-95
2022/06/28 02:57:38;;;;;;;15.00;13.70;;;;;;;;;;4975104;28;20495;-94
2022/06/28 03:00:07;;;;;;;13.67;12.57;;;;;;;;;;4986940;28;20433;-92
2022/06/28 03:02:35;;;;;;;17.70;13.83;;;;;;;;;;4992210;28;20438;-95
2022/06/28 03:05:01;;;;;;;17.73;15.53;;;;;;;;;;4993999;28;20440;-94
2022/06/28 03:07:27;;;;;;;15.50;13.90;;;;;;;;;;4977071;28;20446;-94
2022/06/28 03:09:53;;;;;;;15.90;14.43;;;;;;;;;;4984513;28;20525;-94
2022/06/28 03:12:19;;;;;;;15.37;13.77;;;;;;;;;;4988857;28;20469;-94
2022/06/28 03:14:45;;;;;;;21.23;16.87;;;;;;;;;;5005899;28;21003;-94
2022/06/28 03:17:11;;;;;;;24.10;16.67;;;;;;;;;;4990737;28;20513;-94
2022/06/28 03:19:37;;;;;;;26.20;16.57;;;;;;;;;;4993189;28;20444;-95
2022/06/28 03:22:03;;;;;;;23.50;17.40;;;;;;;;;;4985115;28;20940;-94
2022/06/28 03:24:29;;;;;;;18.37;16.47;;;;;;;;;;4990658;28;20469;-95
2022/06/28 03:26:55;;;;;;;20.10;15.80;;;;;;;;;;4978139;28;20437;-90
2022/06/28 03:29:22;;;;;;;16.97;15.43;;;;;;;;;;5000884;28;20845;-94
2022/06/28 03:31:49;;;;;;;16.93;14.90;;;;;;;;;;4988569;28;20440;-95
2022/06/28 03:34:15;;;;;;;16.03;14.50;;;;;;;;;;5001623;28;20428;-95
2022/06/28 03:36:41;;;;;;;14.87;13.60;;;;;;;;;;4998741;28;20515;-95
2022/06/28 03:39:07;;;;;;;15.93;14.53;;;;;;;;;;5002148;28;20416;-94
2022/06/28 03:41:33;;;;;;;17.53;15.93;;;;;;;;;;4977108;28;20505;-95
2022/06/28 03:43:59;;;;;;;16.10;14.60;;;;;;;;;;5000797;28;20431;-95
2022/06/28 03:46:25;;;;;;;17.63;15.80;;;;;;;;;;4996464;28;20520;-94
2022/06/28 03:48:51;;;;;;;16.70;15.13;;;;;;;;;;4982581;28;20447;-93
2022/06/28 03:51:17;;;;;;;18.43;16.63;;;;;;;;;;5001784;28;20448;-93
2022/06/28 03:53:43;;;;;;;17.73;15.10;;;;;;;;;;4994800;28;20515;-91
2022/06/28 03:56:12;;;;;;;18.40;16.37;;;;;;;;;;4996171;28;20435;-90
2022/06/28 03:58:38;;;;;;;21.57;15.00;;;;;;;;;;4979051;28;20402;-92
2022/06/28 04:01:04;;;;;;;17.73;15.47;;;;;;;;;;4994004;28;20525;-94
2022/06/28 04:03:32;;;;;;;15.53;14.03;;;;;;;;;;4999223;28;20444;-94
2022/06/28 04:05:58;;;;;;;16.27;14.87;;;;;;;;;;4995400;28;20549;-93
2022/06/28 04:08:24;;;;;;;16.30;14.70;;;;;;;;;;4964554;28;20405;-92
2022/06/28 04:11:13;;;;;;;16.07;14.47;;;;;;;;;;4995764;28;20478;-95
2022/06/28 04:13:37;;;;;;;16.00;14.57;;;;;;;;;;4984335;28;20502;-93
2022/06/28 04:16:03;;;;;;;15.63;14.30;;;;;;;;;;4994551;28;20495;-95
2022/06/28 04:18:29;;;;;;;16.33;14.83;;;;;;;;;;4978019;28;20426;-93
2022/06/28 04:20:56;;;;;;;18.70;16.77;;;;;;;;;;4997334;28;20538;-95
2022/06/28 04:23:22;;;;;;;17.60;15.90;;;;;;;;;;4993741;28;20523;-93
2022/06/28 04:25:48;;;;;;;15.07;13.63;;;;;;;;;;4969841;28;20415;-93
2022/06/28 04:28:14;;;;;;;16.23;14.50;;;;;;;;;;4978595;28;20442;-95
2022/06/28 04:30:40;;;;;;;18.43;15.00;;;;;;;;;;4995252;28;20436;-95
2022/06/28 04:33:06;;;;;;;15.00;13.60;;;;;;;;;;4990285;28;21011;-95
2022/06/28 04:35:32;;;;;;;15.70;14.37;;;;;;;;;;4995406;28;20439;-92
2022/06/28 04:37:58;;;;;;;16.37;14.70;;;;;;;;;;4967841;28;20454;-95
2022/06/28 04:40:24;;;;;;;15.63;14.03;;;;;;;;;;4969991;28;20416;-94
2022/06/28 04:42:50;;;;;;;14.07;12.87;;;;;;;;;;4976318;28;20445;-93
2022/06/28 04:45:16;;;;;;;15.33;14.20;;;;;;;;;;4995232;28;20528;-95
2022/06/28 04:47:43;;;;;;;16.77;14.60;;;;;;;;;;4989663;28;20465;-93
2022/06/28 04:50:11;;;;;;;14.23;13.23;;;;;;;;;;4977543;28;20483;-90
2022/06/28 04:52:37;;;;;;;14.20;11.93;;;;;;;;;;4994809;28;20464;-94
2022/06/28 04:55:03;;;;;;;12.73;11.73;;;;;;;;;;4986210;28;20425;-91
2022/06/28 04:57:30;;;;;;;14.80;12.27;;;;;;;;;;4997635;28;20508;-94
2022/06/28 04:59:56;;;;;;;13.30;11.93;;;;;;;;;;4631606;28;10000457;-95
2022/06/28 05:02:22;;;;;;;11.63;10.63;;;;;;;;;;4979426;28;20183;-95
2022/06/28 05:04:48;;;;;;;12.37;11.40;;;;;;;;;;4976276;28;20489;-95
2022/06/28 05:07:14;;;;;;;11.43;10.53;;;;;;;;;;4991812;28;20428;-94
2022/06/28 05:09:40;;;;;;;10.33;9.23;;;;;;;;;;4980489;28;20452;-91
2022/06/28 05:12:07;;;;;;;9.57;8.87;;;;;;;;;;4982039;28;21017;-94
2022/06/28 05:14:33;;;;;;;9.80;9.07;;;;;;;;;;4984082;28;20477;-92
2022/06/28 05:16:59;;;;;;;9.10;8.50;;;;;;;;;;4978547;28;20461;-94
2022/06/28 05:19:25;;;;;;;9.47;8.70;;;;;;;;;;4975721;28;20839;-95
2022/06/28 05:21:52;;;;;;;9.17;8.37;;;;;;;;;;4991623;28;20479;-93
2022/06/28 05:24:18;;;;;;;8.90;8.10;;;;;;;;;;4987168;28;20437;-95
2022/06/28 05:26:44;;;;;;;8.30;7.70;;;;;;;;;;4981997;28;20479;-94
2022/06/28 05:29:10;;;;;;;7.10;6.60;;;;;;;;;;4989430;28;20939;-92
2022/06/28 05:31:36;;;;;;;8.60;7.80;;;;;;;;;;4982622;28;20444;-95
2022/06/28 05:34:02;;;;;;;7.80;7.30;;;;;;;;;;4975115;28;20558;-92
2022/06/28 05:36:31;;;;;;;7.60;7.10;;;;;;;;;;4987290;28;20527;-95
2022/06/28 05:38:57;;;;;;;7.70;6.97;;;;;;;;;;4982361;28;20889;-95
2022/06/28 05:41:23;;;;;;;7.00;6.50;;;;;;;;;;4982493;28;20647;-92
2022/06/28 05:43:50;;;;;;;8.20;7.50;;;;;;;;;;4984162;28;20417;-96
2022/06/28 05:46:16;;;;;;;7.17;6.60;;;;;;;;;;4998386;28;20456;-95
2022/06/28 05:48:42;;;;;;;6.57;5.93;;;;;;;;;;4989119;28;20431;-90
2022/06/28 05:51:08;;;;;;;7.03;6.33;;;;;;;;;;4980224;28;20525;-93
2022/06/28 05:53:34;;;;;;;6.97;6.10;;;;;;;;;;4978084;28;20462;-92
2022/06/28 05:56:00;;;;;;;7.00;6.40;;;;;;;;;;4983391;28;20565;-91
2022/06/28 05:58:26;;;;;;;6.20;5.73;;;;;;;;;;4979921;28;20433;-94
2022/06/28 06:00:52;;;;;;;6.00;5.33;;;;;;;;;;4973416;28;20555;-91
2022/06/28 06:03:18;;;;;;;5.83;5.33;;;;;;;;;;4965466;28;20986;-93
2022/06/28 06:05:44;;;;;;;5.60;5.30;;;;;;;;;;4972557;28;20444;-94
2022/06/28 06:08:10;;;;;;;5.57;5.10;;;;;;;;;;4963489;28;20464;-91
2022/06/28 06:10:36;;;;;;;6.30;5.90;;;;;;;;;;4967965;28;20448;-93
2022/06/28 06:13:02;;;;;;;4.90;4.70;;;;;;;;;;4960687;28;20481;-92
2022/06/28 06:15:28;;;;;;;6.13;5.50;;;;;;;;;;4975119;28;20974;-93
2022/06/28 06:17:54;;;;;;;5.70;5.30;;;;;;;;;;4966707;28;20882;-92
2022/06/28 06:20:20;;;;;;;6.00;5.50;;;;;;;;;;4971409;28;20437;-92
2022/06/28 06:22:47;;;;;;;4.93;4.47;;;;;;;;;;4968200;28;20445;-93
2022/06/28 06:25:13;;;;;;;5.10;4.07;;;;;;;;;;4971219;28;20680;-93
2022/06/28 06:27:39;;;;;;;5.07;4.17;;;;;;;;;;4973820;28;20517;-91
2022/06/28 06:30:06;;;;;;;4.77;3.63;;;;;;;;;;4983214;28;20429;-93
2022/06/28 06:32:33;;;;;;;4.33;4.00;;;;;;;;;;4983097;28;20460;-91
2022/06/28 06:34:59;;;;;;;4.13;3.53;;;;;;;;;;4973408;28;20824;-93
2022/06/28 06:37:25;;;;;;;6.80;3.90;;;;;;;;;;4985584;28;20765;-91
2022/06/28 06:39:51;;;;;;;3.97;3.77;;;;;;;;;;4966625;28;20449;-89
2022/06/28 06:42:17;;;;;;;5.07;3.43;;;;;;;;;;4990921;28;20429;-92
2022/06/28 06:44:43;;;;;;;4.03;3.63;;;;;;;;;;4983171;28;20425;-94
2022/06/28 06:47:09;;;;;;;3.80;3.60;;;;;;;;;;5000033;28;20575;-93
2022/06/28 06:49:41;;;;;;;4.63;3.57;;;;;;;;;;4994847;28;20533;-94
2022/06/28 06:52:08;;;;;;;3.93;3.27;;;;;;;;;;4994845;28;20467;-92
2022/06/28 06:54:34;;;;;;;2.97;2.87;;;;;;;;;;4995358;28;20433;-93
2022/06/28 06:57:00;;;;;;;3.83;3.17;;;;;;;;;;4989047;28;20440;-93
2022/06/28 06:59:26;;;;;;;4.33;3.93;;;;;;;;;;4979145;28;20440;-90
2022/06/28 07:01:58;;;;;;;3.33;3.23;;;;;;;;;;4998696;28;20669;-94
2022/06/28 07:04:24;;;;;;;4.13;3.60;;;;;;;;;;4982844;28;20439;-92
2022/06/28 07:06:50;;;;;;;5.37;3.20;;;;;;;;;;4990108;28;20503;-93
2022/06/28 07:09:16;;;;;;;3.30;3.10;;;;;;;;;;4977809;28;20471;-92
2022/06/28 07:11:44;;;;;;;3.33;2.97;;;;;;;;;;4979633;28;20440;-93
2022/06/28 07:14:10;;;;;;;2.23;2.23;;;;;;;;;;4964560;28;20478;-92
2022/06/28 07:16:36;;;;;;;4.23;3.07;;;;;;;;;;4981329;28;21479;-95
2022/06/28 07:19:03;;;;;;;2.50;2.43;;;;;;;;;;4979396;28;20413;-94
2022/06/28 07:21:29;;;;;;;2.50;2.40;;;;;;;;;;4979784;28;20463;-94
2022/06/28 07:23:55;;;;;;;2.97;2.33;;;;;;;;;;4982882;28;20939;-93
2022/06/28 07:26:21;;;;;;;1.93;1.93;;;;;;;;;;4975757;28;20429;-92
2022/06/28 07:28:47;;;;;;;1.90;1.80;;;;;;;;;;4981869;28;20487;-93
2022/06/28 07:31:15;;;;;;;2.33;2.23;;;;;;;;;;4996887;28;20484;-94
2022/06/28 07:33:41;;;;;;;2.20;1.87;;;;;;;;;;4991570;28;20552;-95
2022/06/28 07:36:07;;;;;;;1.63;1.53;;;;;;;;;;4983873;28;20504;-91
2022/06/28 07:38:33;;;;;;;2.10;2.00;;;;;;;;;;4956717;28;20450;-93
2022/06/28 07:40:59;;;;;;;2.27;2.17;;;;;;;;;;4970597;28;20509;-91
2022/06/28 07:43:25;;;;;;;3.00;1.47;;;;;;;;;;4972255;28;20480;-93
2022/06/28 07:45:52;;;;;;;2.00;1.90;;;;;;;;;;4984219;28;20472;-92
2022/06/28 07:48:19;;;;;;;1.43;1.40;;;;;;;;;;4975230;28;21026;-92
2022/06/28 07:53:30;;;;;;;1.20;1.20;;;;;;;;;;4970180;28;20532;-90
2022/06/28 07:55:56;;;;;;;1.67;1.67;;;;;;;;;;4978499;28;20481;-89
2022/06/28 07:58:22;;;;;;;3.70;2.20;;;;;;;;;;4972610;28;20701;-91
2022/06/28 08:00:48;;;;;;;1.60;1.60;;;;;;;;;;4981069;28;20509;-88
2022/06/28 08:03:14;;;;;;;1.43;1.43;;;;;;;;;;4978322;28;20436;-89
2022/06/28 08:05:40;;;;;;;2.30;1.63;;;;;;;;;;4970917;28;20482;-91
2022/06/28 08:08:06;;;;;;;1.23;1.13;;;;;;;;;;4969646;28;20450;-92
2022/06/28 08:10:32;;;;;;;1.50;1.50;;;;;;;;;;4981156;28;20485;-92
2022/06/28 08:12:58;;;;;;;4.40;2.17;;;;;;;;;;4980596;28;20468;-91
2022/06/28 08:15:24;;;;;;;1.53;1.43;;;;;;;;;;4986545;28;20492;-89
2022/06/28 08:17:50;;;;;;;1.77;1.77;;;;;;;;;;4986589;28;20461;-90
2022/06/28 08:20:29;;;;;;;;;;;;;;;;;;;;;
2022/06/28 08:22:55;;;;;;;3.70;2.03;;;;;;;;;;4993159;28;20464;-90
2022/06/28 08:25:30;;;;;;;4.47;1.70;;;;;;;;;;4990223;28;20424;-91
2022/06/28 08:28:00;;;;;;;2.70;2.70;;;;;;;;;;4992646;28;20444;-91
2022/06/28 08:30:27;;;;;;;1.77;1.73;;;;;;;;;;5002793;28;20449;-92
2022/06/28 08:32:53;;;;;;;1.20;1.20;;;;;;;;;;4987630;28;20623;-91
2022/06/28 08:35:20;;;;;;;3.03;1.70;;;;;;;;;;4988208;28;20449;-91
2022/06/28 08:37:46;;;;;;;6.73;2.80;;;;;;;;;;4997129;28;20453;-92
2022/06/28 08:40:12;;;;;;;1.73;1.50;;;;;;;;;;4972327;28;20481;-91
2022/06/28 08:42:45;;;;;;;1.77;1.20;;;;;;;;;;4996065;28;20503;-90
2022/06/28 08:45:15;;;;;;;2.40;2.30;;;;;;;;;;4977038;28;20488;-92
2022/06/28 08:47:42;;;;;;;1.50;1.50;;;;;;;;;;4988638;28;20446;-91
2022/06/28 08:50:20;;;;;;;1.77;1.53;;;;;;;;;;5007013;28;20437;-90
2022/06/28 08:52:48;;;;;;;1.77;1.67;;;;;;;;;;4971901;29;20488;-89
2022/06/28 08:55:15;;;;;;;2.73;1.30;;;;;;;;;;5000974;28;20448;-91
2022/06/28 08:57:43;;;;;;;1.40;1.40;;;;;;;;;;5006069;28;20417;-90
2022/06/28 09:00:13;;;;;;;1.73;1.63;;;;;;;;;;5005179;28;20993;-92
2022/06/28 09:02:42;;;;;;;3.73;1.80;;;;;;;;;;5891106;22;21629;-93
2022/06/28 09:05:12;;;;;;;2.63;1.23;;;;;;;;;;5007252;28;20426;-92
2022/06/28 09:07:44;;;;;;;1.70;1.60;;;;;;;;;;5019437;28;20447;-91
2022/06/28 09:10:14;;;;;;;1.77;1.67;;;;;;;;;;5009926;28;20423;-90
2022/06/28 09:12:40;;;;;;;3.17;1.90;;;;;;;;;;4996845;28;20480;-90
2022/06/28 09:15:06;;;;;;;1.30;1.30;;;;;;;;;;4997612;28;20961;-91
2022/06/28 09:17:34;;;;;;;2.43;2.33;;;;;;;;;;5002325;28;20505;-91
2022/06/28 09:20:10;;;;;;;3.60;1.40;;;;;;;;;;4975449;28;20436;-91
2022/06/28 09:22:46;;;;;;;1.40;1.40;;;;;;;;;;5000605;28;20447;-92
2022/06/28 09:25:30;;;;;;;1.47;1.37;;;;;;;;;;4993339;28;20509;-92
2022/06/28 09:28:03;;;;;;;2.30;2.07;;;;;;;;;;4997852;28;20518;-89
2022/06/28 09:30:33;;;;;;;1.47;1.47;;;;;;;;;;4644241;28;10000410;-89
2022/06/28 09:33:02;;;;;;;2.17;1.60;;;;;;;;;;4975228;28;20479;-91
2022/06/28 09:35:29;;;;;;;1.90;1.70;;;;;;;;;;5001871;28;20503;-92
2022/06/28 09:37:55;;;;;;;2.20;2.10;;;;;;;;;;4982241;28;20455;-91
2022/06/28 09:40:26;;;;;;;1.27;1.27;;;;;;;;;;4993139;28;20846;-92
2022/06/28 09:45:39;;;;;;;1.47;1.37;;;;;;;;;;5528095;23;20791;-92
2022/06/28 09:48:05;;;;;;;3.70;1.63;;;;;;;;;;5007789;28;20454;-92
2022/06/28 09:50:33;;;;;;;1.53;1.43;;;;;;;;;;4997384;28;20454;-92
2022/06/28 09:53:00;;;;;;;1.77;1.67;;;;;;;;;;5018339;28;20472;-92
2022/06/28 09:55:31;;;;;;;1.67;1.67;;;;;;;;;;5013846;28;20472;-92
2022/06/28 09:57:59;;;;;;;2.30;1.57;;;;;;;;;;4999324;28;20447;-91
2022/06/28 10:00:28;;;;;;;1.63;1.50;;;;;;;;;;5008671;28;20444;-85
2022/06/28 10:03:00;;;;;;;2.10;2.00;;;;;;;;;;4978347;28;20405;-90
2022/06/28 10:05:27;;;;;;;1.80;1.80;;;;;;;;;;5011425;28;20431;-91
2022/06/28 10:07:57;;;;;;;2.50;1.67;;;;;;;;;;4991196;28;20456;-91
2022/06/28 10:10:31;;;;;;;1.70;1.60;;;;;;;;;;4995206;28;20446;-92
2022/06/28 10:16:05;;;;;;;1.30;1.30;;;;;;;;;;4991451;28;20484;-88
2022/06/28 10:18:32;;;;;;;2.50;0.93;;;;;;;;;;4992062;28;20468;-89
2022/06/28 10:20:58;;;;;;;2.00;1.90;;;;;;;;;;5010776;28;20509;-93
2022/06/28 10:23:25;;;;;;;1.77;1.67;;;;;;;;;;5018079;28;20462;-92
2022/06/28 10:26:11;;;;;;;1.57;1.50;;;;;;;;;;5025841;28;20428;-90
2022/06/28 10:28:57;;;;;;;4.97;1.50;;;;;;;;;;5016005;28;20482;-90
2022/06/28 10:31:56;;;;;;;;;;;;;;;;;;;;;
2022/06/28 10:34:23;;;;;;;1.30;1.30;;;;;;;;;;5018892;28;20567;-87
2022/06/28 10:36:51;;;;;;;1.53;1.43;;;;;;;;;;5018235;28;20453;-89
2022/06/28 10:39:17;;;;;;;1.40;1.20;;;;;;;;;;5020313;28;20485;-91
2022/06/28 10:41:45;;;;;;;1.60;1.47;;;;;;;;;;5029394;28;20442;-93
2022/06/28 10:44:15;;;;;;;1.10;1.10;;;;;;;;;;5001391;28;20570;-91
2022/06/28 10:46:42;;;;;;;1.67;1.50;;;;;;;;;;5021659;28;20463;-92
2022/06/28 10:49:09;;;;;;;1.40;1.13;;;;;;;;;;5003798;28;20511;-89
2022/06/28 10:51:57;;;;;;;1.40;1.40;;;;;;;;;;5009574;28;20799;-90
2022/06/28 10:54:23;;;;;;;1.60;1.50;;;;;;;;;;5017295;28;20490;-91
2022/06/28 10:56:49;;;;;;;1.67;1.67;;;;;;;;;;5023866;28;20411;-90
2022/06/28 10:59:17;;;;;;;2.17;2.03;;;;;;;;;;5004552;28;20532;-91
2022/06/28 11:01:43;;;;;;;1.50;1.50;;;;;;;;;;5028524;28;20432;-90
2022/06/28 11:04:19;;;;;;;1.73;1.63;;;;;;;;;;5003236;28;21000;-91
2022/06/28 11:06:48;;;;;;;1.70;1.70;;;;;;;;;;5019573;28;20442;-90
2022/06/28 11:09:17;;;;;;;1.50;1.40;;;;;;;;;;5022609;28;20435;-92
2022/06/28 11:12:05;;;;;;;1.33;1.30;;;;;;;;;;5022447;28;20434;-88
2022/06/28 11:14:32;;;;;;;1.17;1.07;;;;;;;;;;5022554;28;20462;-92
2022/06/28 11:17:01;;;;;;;1.10;1.10;;;;;;;;;;5022338;28;20585;-91
2022/06/28 11:19:27;;;;;;;1.10;1.10;;;;;;;;;;4994920;28;20464;-91
2022/06/28 11:21:57;;;;;;;1.30;1.30;;;;;;;;;;5015599;28;21011;-91
2022/06/28 11:24:26;;;;;;;1.77;1.67;;;;;;;;;;4991508;28;20524;-92
2022/06/28 11:29:37;;;;;;;1.10;1.10;;;;;;;;;;4983803;28;20421;-89
2022/06/28 11:32:14;;;;;;;2.10;2.00;;;;;;;;;;5023355;28;20420;-92
2022/06/28 11:34:59;;;;;;;;;;;;;;;;;;;;;
2022/06/28 11:37:30;;;;;;;1.53;1.43;;;;;;;;;;5026368;28;20502;-88
2022/06/28 11:39:57;;;;;;;1.80;1.70;;;;;;;;;;5026801;28;20431;-92
2022/06/28 11:42:24;;;;;;;1.60;1.60;;;;;;;;;;5020168;28;20500;-92
2022/06/28 11:44:51;;;;;;;6.13;2.50;;;;;;;;;;5009890;28;20416;-93
2022/06/28 11:47:17;;;;;;;1.63;1.63;;;;;;;;;;5020679;28;20467;-92
2022/06/28 11:49:43;;;;;;;1.70;1.60;;;;;;;;;;5014806;28;20407;-91
2022/06/28 11:52:15;;;;;;;1.83;1.83;;;;;;;;;;5017289;28;20431;-92
2022/06/28 11:54:42;;;;;;;1.70;1.70;;;;;;;;;;4988255;28;20425;-89
2022/06/28 11:57:17;;;;;;;1.80;1.33;;;;;;;;;;5016572;28;20497;-89
2022/06/28 12:00:09;;;;;;;1.90;1.80;;;;;;;;;;5002886;28;20435;-91
2022/06/28 12:02:38;;;;;;;1.17;1.17;;;;;;;;;;5001686;28;20445;-91
2022/06/28 12:05:05;;;;;;;2.13;1.80;;;;;;;;;;5014008;28;20467;-90
2022/06/28 12:07:35;;;;;;;1.67;1.57;;;;;;;;;;5012020;28;20486;-90
2022/06/28 12:10:01;;;;;;;1.47;1.40;;;;;;;;;;5015804;28;20488;-88
2022/06/28 12:12:27;;;;;;;2.30;2.10;;;;;;;;;;5012094;28;20490;-90
2022/06/28 12:14:57;;;;;;;1.70;1.60;;;;;;;;;;5017945;28;20408;-92
2022/06/28 12:17:27;;;;;;;2.63;2.33;;;;;;;;;;5018711;28;20456;-92
2022/06/28 12:19:53;;;;;;;1.67;1.60;;;;;;;;;;5011262;28;20451;-90
2022/06/28 12:22:20;;;;;;;2.07;1.97;;;;;;;;;;4998676;28;20445;-90
2022/06/28 12:24:46;;;;;;;1.60;1.60;;;;;;;;;;4997218;28;20420;-92
2022/06/28 12:27:16;;;;;;;1.43;1.33;;;;;;;;;;4301784;28;10000739;-90
2022/06/28 12:29:42;;;;;;;1.60;1.60;;;;;;;;;;5006849;28;20209;-91
2022/06/28 12:32:09;;;;;;;1.90;1.80;;;;;;;;;;5000360;28;20503;-90
2022/06/28 12:34:35;;;;;;;1.50;1.50;;;;;;;;;;5003004;28;20482;-91
2022/06/28 12:37:02;;;;;;;1.40;1.40;;;;;;;;;;5001819;28;20453;-88
2022/06/28 12:39:28;;;;;;;1.63;1.63;;;;;;;;;;4967388;28;20451;-92
2022/06/28 12:41:54;;;;;;;1.73;1.73;;;;;;;;;;4999169;28;20528;-90
2022/06/28 12:44:20;;;;;;;1.43;1.40;;;;;;;;;;5000465;28;20445;-91
2022/06/28 12:46:46;;;;;;;1.90;1.80;;;;;;;;;;5011881;28;20555;-91
2022/06/28 12:49:16;;;;;;;1.60;1.50;;;;;;;;;;5006843;28;20494;-91
2022/06/28 12:51:42;;;;;;;1.77;1.77;;;;;;;;;;5013187;28;20439;-91
2022/06/28 12:54:13;;;;;;;1.70;1.70;;;;;;;;;;4995253;28;20579;-90
2022/06/28 12:56:39;;;;;;;1.67;1.63;;;;;;;;;;4995471;28;20480;-86
2022/06/28 12:59:06;;;;;;;2.33;2.10;;;;;;;;;;4989769;28;20485;-91
2022/06/28 13:01:35;;;;;;;2.00;1.77;;;;;;;;;;5002343;28;20451;-91
2022/06/28 13:04:01;;;;;;;1.37;1.27;;;;;;;;;;4992071;28;20433;-90
2022/06/28 13:06:30;;;;;;;1.67;1.67;;;;;;;;;;5012847;28;20432;-90
2022/06/28 13:09:15;;;;;;;1.50;1.33;;;;;;;;;;4988778;28;20429;-90
2022/06/28 13:11:42;;;;;;;2.70;2.47;;;;;;;;;;5000387;28;20436;-90
2022/06/28 13:14:08;;;;;;;1.33;1.33;;;;;;;;;;5004076;28;20554;-91
2022/06/28 13:16:40;;;;;;;1.60;1.60;;;;;;;;;;4992105;28;20429;-89
2022/06/28 13:19:34;;;;;;;2.70;2.50;;;;;;;;;;4993572;28;20436;-90
2022/06/28 13:22:00;;;;;;;2.60;1.57;;;;;;;;;;4966339;28;20473;-91
2022/06/28 13:24:26;;;;;;;1.20;1.20;;;;;;;;;;5004310;28;20433;-93
2022/06/28 13:26:55;;;;;;;2.00;1.70;;;;;;;;;;4995868;28;20436;-92
2022/06/28 13:29:24;;;;;;;1.23;1.23;;;;;;;;;;5010132;28;20444;-89
2022/06/28 13:31:50;;;;;;;1.60;1.60;;;;;;;;;;5015002;28;20429;-92
2022/06/28 13:34:17;;;;;;;2.00;1.90;;;;;;;;;;4999707;28;20476;-90
2022/06/28 13:36:43;;;;;;;1.50;1.50;;;;;;;;;;5019382;28;20412;-90
2022/06/28 13:39:14;;;;;;;1.77;1.67;;;;;;;;;;5009546;28;20470;-92
2022/06/28 13:41:49;;;;;;;2.00;1.87;;;;;;;;;;4995095;28;20441;-91
2022/06/28 13:44:16;;;;;;;1.83;1.83;;;;;;;;;;4990391;28;20509;-91
2022/06/28 13:46:45;;;;;;;1.40;1.40;;;;;;;;;;5014579;28;20455;-90
2022/06/28 13:49:15;;;;;;;3.67;3.33;;;;;;;;;;4998670;28;20967;-88
2022/06/28 13:51:42;;;;;;;1.67;1.67;;;;;;;;;;5014315;28;20456;-91
2022/06/28 13:54:22;;;;;;;1.90;1.80;;;;;;;;;;5002359;28;20468;-92
2022/06/28 13:56:56;;;;;;;1.77;1.77;;;;;;;;;;4994736;28;20441;-89
2022/06/28 13:59:23;;;;;;;3.53;1.87;;;;;;;;;;5007324;28;20459;-90
2022/06/28 14:02:08;;;;;;;1.63;1.53;;;;;;;;;;5020707;28;20444;-89
2022/06/28 14:04:37;;;;;;;1.50;1.50;;;;;;;;;;5141916;23;20481;-94
2022/06/28 14:15:12;;;;;;;1.80;1.70;;;;;;;;;;3793108;23;20487;-94
2022/06/28 14:17:38;;;;;;;1.77;1.60;;;;;;;;;;5025074;28;20551;-93
2022/06/28 14:20:07;;;;;;;1.50;1.50;;;;;;;;;;5014706;28;20464;-92
2022/06/28 14:22:33;;;;;;;1.37;1.37;;;;;;;;;;5124842;22;20473;-92
2022/06/28 14:25:02;;;;;;;2.00;1.60;;;;;;;;;;4982010;28;20462;-92
2022/06/28 14:32:45;;;;;;;1.73;1.70;;;;;;;;;;5106618;23;20494;-89
2022/06/28 14:35:12;;;;;;;3.07;1.87;;;;;;;;;;4972982;28;20425;-94
2022/06/28 14:37:54;;;;;;;1.90;1.80;;;;;;;;;;5288437;23;20510;-95
2022/06/28 14:40:20;;;;;;;1.50;1.50;;;;;;;;;;5010131;28;20409;-94
2022/06/28 14:42:47;;;;;;;1.53;1.53;;;;;;;;;;5000521;28;20476;-94
2022/06/28 14:45:52;;;;;;;6.00;2.10;;;;;;;;;;4995079;28;20483;-94
2022/06/28 14:48:27;;;;;;;1.73;1.73;;;;;;;;;;4976271;28;20488;-93
2022/06/28 14:51:06;;;;;;;1.90;1.90;;;;;;;;;;5027410;28;20495;-89
2022/06/28 14:53:35;;;;;;;1.73;1.63;;;;;;;;;;5011808;28;20510;-92
2022/06/28 14:56:12;;;;;;;1.90;1.80;;;;;;;;;;4998528;28;20425;-92
2022/06/28 15:01:51;;;;;;;3.50;2.37;;;;;;;;;;4990757;28;20423;-94
2022/06/28 15:04:21;;;;;;;2.27;2.17;;;;;;;;;;5270129;23;20475;-93
2022/06/28 15:07:00;;;;;;;3.33;2.40;;;;;;;;;;5208655;22;20491;-92
2022/06/28 15:12:01;;;;;;;1.60;1.60;;;;;;;;;;5013346;28;20522;-93
2022/06/28 15:14:27;;;;;;;2.60;2.50;;;;;;;;;;4993574;28;20545;-92
2022/06/28 15:16:54;;;;;;;2.10;2.00;;;;;;;;;;4993802;28;20467;-93
2022/06/28 15:19:22;;;;;;;3.03;2.03;;;;;;;;;;4997586;28;20509;-94
2022/06/28 15:32:54;;;;;;;2.00;2.00;;;;;;;;;;4280699;28;10000527;-95